Time;durP1;ratioP1;P1;durP2;ratioP2;P2;SDS_P1;SDS_P2;PMS_P1;PMS_P2;Temp;Humidity;BMP_temperature;BMP_pressure;BME280_temperature;BME280_humidity;BME280_pressure;Samples;Min_cycle;Max_cycle;Signal;HPM_P1;HPM_P2
2022/04/25 00:01:14;;;;;;;3.97;1.77;;;;;;;7.26;91.43;99649.56;8570961;34;20157;-76
2022/04/25 00:06:17;;;;;;;1.73;1.73;;;;;;;7.08;92.01;99655.53;8584894;34;20147;-78
2022/04/25 00:11:21;;;;;;;2.42;2.05;;;;;;;7.50;90.93;99662.78;8583734;34;20282;-76
2022/04/25 00:16:24;;;;;;;1.05;1.05;;;;;;;7.87;91.36;99680.38;8581795;34;20209;-77
2022/04/25 00:21:28;;;;;;;1.73;1.67;;;;;;;7.93;90.27;99685.25;8581713;34;20926;-77
2022/04/25 00:26:32;;;;;;;2.22;1.58;;;;;;;7.65;90.51;99684.81;8581191;34;20154;-77
2022/04/25 00:31:35;;;;;;;2.05;1.48;;;;;;;7.83;90.53;99681.59;8582168;34;20872;-77
2022/04/25 00:36:39;;;;;;;1.27;1.08;;;;;;;7.87;90.36;99691.06;8581266;34;20769;-77
2022/04/25 00:41:43;;;;;;;7.22;1.20;;;;;;;8.00;90.22;99683.75;8557690;34;20205;-76
2022/04/25 00:46:48;;;;;;;2.95;2.58;;;;;;;7.99;90.03;99690.09;8580909;34;20726;-76
2022/04/25 00:51:52;;;;;;;1.05;0.63;;;;;;;7.96;90.28;99682.31;8581185;34;20269;-75
2022/04/25 00:56:57;;;;;;;26.33;13.60;;;;;;;7.92;90.47;99688.88;8581074;34;20458;-76
2022/04/25 01:02:00;;;;;;;40.15;19.42;;;;;;;7.95;90.51;99688.63;8580758;34;20194;-75
2022/04/25 01:07:03;;;;;;;37.50;20.33;;;;;;;8.02;90.43;99694.34;8580302;34;21028;-75
2022/04/25 01:12:09;;;;;;;36.08;19.50;;;;;;;7.98;90.01;99693.75;8580185;34;20671;-75
2022/04/25 01:17:12;;;;;;;34.67;20.63;;;;;;;7.98;90.38;99695.56;8579863;34;20169;-75
2022/04/25 01:22:18;;;;;;;36.88;20.65;;;;;;;8.01;90.48;99693.50;8580459;34;20264;-75
2022/04/25 01:27:22;;;;;;;39.28;21.92;;;;;;;7.97;90.50;99686.69;8579413;34;20542;-76
2022/04/25 01:32:25;;;;;;;35.45;20.38;;;;;;;7.99;90.39;99686.56;8579966;34;20196;-76
2022/04/25 01:37:29;;;;;;;39.53;21.05;;;;;;;7.93;90.23;99701.28;8578932;34;20158;-75
2022/04/25 01:42:34;;;;;;;37.72;19.65;;;;;;;7.92;90.25;99692.41;8579374;34;20162;-76
2022/04/25 01:47:37;;;;;;;34.22;19.80;;;;;;;7.88;90.18;99682.09;8555461;34;20483;-76
2022/04/25 01:52:40;;;;;;;31.52;19.30;;;;;;;7.85;90.25;99680.50;8579055;34;21063;-76
2022/04/25 01:57:44;;;;;;;33.70;20.50;;;;;;;7.84;90.29;99683.28;8578941;34;20606;-74
2022/04/25 02:02:48;;;;;;;42.00;21.15;;;;;;;7.88;90.51;99690.97;8579020;34;20153;-75
2022/04/25 02:07:51;;;;;;;37.85;21.52;;;;;;;7.81;89.90;99680.88;8578636;34;20640;-74
2022/04/25 02:12:55;;;;;;;39.80;21.13;;;;;;;7.80;90.04;99671.16;8578742;34;20154;-75
2022/04/25 02:17:58;;;;;;;46.78;22.58;;;;;;;7.79;90.07;99666.78;8578557;34;20472;-75
2022/04/25 02:23:01;;;;;;;42.30;22.35;;;;;;;7.70;89.98;99668.38;8577877;34;20914;-75
2022/04/25 02:28:06;;;;;;;42.35;23.08;;;;;;;7.64;89.84;99669.72;8578200;34;20141;-75
2022/04/25 02:33:09;;;;;;;42.08;22.83;;;;;;;7.64;89.87;99663.53;8578297;34;20159;-75
2022/04/25 02:38:12;;;;;;;44.03;22.75;;;;;;;7.66;89.92;99661.59;8578017;34;20281;-75
2022/04/25 02:43:16;;;;;;;41.13;22.15;;;;;;;7.58;89.57;99664.88;8578166;34;20293;-75
2022/04/25 02:48:19;;;;;;;51.80;23.40;;;;;;;7.50;89.57;99661.97;8577818;34;20447;-75
2022/04/25 02:53:24;;;;;;;43.58;23.33;;;;;;;7.44;89.59;99659.78;8578590;34;20445;-75
2022/04/25 02:58:29;;;;;;;42.38;22.58;;;;;;;7.35;89.45;99661.38;8577668;34;20153;-74
2022/04/25 03:03:34;;;;;;;44.70;21.85;;;;;;;7.20;89.66;99655.38;8605462;27;20560;-73
2022/04/25 03:08:39;;;;;;;38.63;20.75;;;;;;;7.16;89.45;99637.91;8753456;33;20377;-74
2022/04/25 03:13:44;;;;;;;43.13;23.58;;;;;;;7.15;89.64;99638.88;8753557;33;20251;-73
2022/04/25 03:18:48;;;;;;;41.88;22.13;;;;;;;7.16;89.54;99637.91;8752589;33;20258;-74
2022/04/25 03:23:51;;;;;;;41.58;22.58;;;;;;;7.14;89.54;99647.88;8752529;33;20246;-74
2022/04/25 03:28:55;;;;;;;37.22;21.48;;;;;;;7.08;89.60;99651.03;8752674;33;20147;-74
2022/04/25 03:33:58;;;;;;;40.80;19.98;;;;;;;7.05;89.20;99665.47;8755539;33;20437;-73
2022/04/25 03:39:01;;;;;;;35.35;18.73;;;;;;;7.05;89.34;99667.28;8734045;33;20972;-73
2022/04/25 03:44:06;;;;;;;33.67;19.80;;;;;;;7.18;89.54;99670.69;8758047;33;20422;-74
2022/04/25 03:49:09;;;;;;;28.10;17.88;;;;;;;7.01;88.79;99677.34;8759823;33;20136;-74
2022/04/25 03:57:09;;;;;;;33.25;18.25;;;;;;;6.98;89.72;99682.06;8734496;33;20262;-74
2022/04/25 03:59:37;;;;;;;30.58;17.05;;;;;;;7.02;89.89;99687.06;8735430;33;20159;-74
2022/04/25 04:04:40;;;;;;;32.30;16.70;;;;;;;7.05;90.10;99686.81;8761224;33;20537;-74
2022/04/25 04:09:46;;;;;;;29.52;16.80;;;;;;;7.02;89.60;99695.06;8760080;33;20432;-73
2022/04/25 04:14:51;;;;;;;30.20;17.08;;;;;;;7.14;90.06;99684.41;8735934;33;20454;-75
2022/04/25 04:19:54;;;;;;;32.92;18.15;;;;;;;7.21;89.73;99704.31;8759272;33;21041;-74
2022/04/25 04:25:01;;;;;;;28.02;17.10;;;;;;;7.14;89.54;99703.09;8758860;33;20159;-74
2022/04/25 04:30:08;;;;;;;36.28;18.58;;;;;;;7.09;89.77;99702.59;8758413;33;20147;-73
2022/04/25 04:35:15;;;;;;;35.08;18.17;;;;;;;7.10;89.59;99713.16;8756572;33;20147;-73
2022/04/25 04:40:30;;;;;;;37.00;19.25;;;;;;;7.14;89.87;99714.63;8753395;33;20759;-74
2022/04/25 04:45:35;;;;;;;35.65;19.83;;;;;;;7.09;89.52;99724.81;8752370;33;20494;-75
2022/04/25 04:50:38;;;;;;;40.50;20.45;;;;;;;7.08;89.77;99733.81;8754462;33;20147;-74
2022/04/25 04:55:42;;;;;;;42.85;21.75;;;;;;;7.03;89.62;99735.97;8754146;33;20151;-73
2022/04/25 05:00:47;;;;;;;34.00;19.08;;;;;;;6.98;89.57;99743.50;8753999;33;20148;-74
2022/04/25 05:05:50;;;;;;;45.05;21.85;;;;;;;7.04;89.94;99751.88;8753455;33;20152;-74
2022/04/25 05:10:54;;;;;;;39.00;21.65;;;;;;;7.09;89.91;99761.38;8753921;33;20841;-73
2022/04/25 05:15:59;;;;;;;41.88;21.88;;;;;;;7.12;90.08;99772.66;8728763;33;20155;-74
2022/04/25 05:21:03;;;;;;;46.60;20.70;;;;;;;6.96;89.80;99769.44;8754131;33;20171;-73
2022/04/25 05:26:08;;;;;;;41.97;20.48;;;;;;;7.10;90.43;99769.25;8753105;33;20694;-73
2022/04/25 05:31:13;;;;;;;34.58;19.80;;;;;;;7.14;90.32;99778.75;8753338;33;20147;-73
2022/04/25 05:36:17;;;;;;;39.17;21.55;;;;;;;7.08;90.00;99778.38;8753132;33;20629;-74
2022/04/25 05:41:20;;;;;;;38.08;20.13;;;;;;;7.12;90.27;99769.13;8753404;33;20194;-73
2022/04/25 05:46:25;;;;;;;36.42;19.50;;;;;;;7.25;90.43;99776.09;8752212;33;20159;-73
2022/04/25 05:56:48;;;;;;;40.42;20.23;;;;;;;7.32;90.39;99786.31;8741700;33;20155;-73
2022/04/25 06:01:54;;;;;;;42.63;22.30;;;;;;;7.30;90.19;99786.44;8753034;33;20544;-74
2022/04/25 06:06:57;;;;;;;39.80;21.05;;;;;;;7.45;90.61;99793.25;8752390;33;20797;-74
2022/04/25 06:12:02;;;;;;;51.00;24.73;;;;;;;7.49;90.56;99805.41;8753304;33;20148;-73
2022/04/25 06:17:06;;;;;;;37.67;21.40;;;;;;;7.53;90.47;99815.88;8751961;33;20144;-73
2022/04/25 06:22:10;;;;;;;37.75;20.10;;;;;;;7.53;90.46;99830.06;8752802;33;20467;-74
2022/04/25 06:27:13;;;;;;;42.55;23.23;;;;;;;7.61;90.48;99826.81;8718931;33;21178;-74
2022/04/25 06:32:17;;;;;;;38.58;20.30;;;;;;;7.53;90.45;99830.06;8694737;33;20636;-73
2022/04/25 06:37:20;;;;;;;40.95;21.50;;;;;;;7.68;90.40;99836.94;8693806;33;20252;-73
2022/04/25 06:42:25;;;;;;;37.33;19.85;;;;;;;7.66;90.28;99846.03;8694071;33;20242;-73
2022/04/25 06:47:30;;;;;;;36.42;19.05;;;;;;;7.82;90.79;99843.03;8669376;33;20149;-73
2022/04/25 06:52:33;;;;;;;28.75;16.63;;;;;;;7.94;90.82;99837.53;8693847;33;20911;-73
2022/04/25 06:57:37;;;;;;;34.72;18.35;;;;;;;8.01;90.68;99850.44;8693198;33;20153;-72
2022/04/25 07:02:41;;;;;;;33.88;18.65;;;;;;;7.92;89.80;99854.69;8693693;33;20166;-73
2022/04/25 07:07:44;;;;;;;32.05;17.85;;;;;;;7.87;90.86;99857.72;8694361;33;20190;-73
2022/04/25 07:12:48;;;;;;;37.58;22.50;;;;;;;8.07;91.04;99853.50;8698491;33;20145;-73
2022/04/25 07:17:55;;;;;;;33.53;18.42;;;;;;;8.13;90.71;99862.84;8697756;33;20181;-73
2022/04/25 07:33:43;;;;;;;39.88;18.00;;;;;;;8.47;91.09;99868.22;8698037;33;20306;-73
2022/04/25 07:38:46;;;;;;;40.90;18.85;;;;;;;8.54;91.73;99867.59;8697910;33;20152;-73
2022/04/25 07:43:49;;;;;;;37.50;18.42;;;;;;;8.56;90.89;99871.00;8697944;33;20137;-72
2022/04/25 07:48:54;;;;;;;36.05;17.55;;;;;;;8.70;91.92;99879.75;8672252;33;20157;-73
2022/04/25 07:53:57;;;;;;;33.78;19.50;;;;;;;8.66;91.49;99892.53;8696726;33;20236;-73
2022/04/25 07:59:01;;;;;;;31.75;17.90;;;;;;;8.71;91.71;99893.00;8697173;33;20173;-75
2022/04/25 08:04:06;;;;;;;32.97;17.48;;;;;;;8.70;91.43;99896.66;8697511;33;20239;-75
2022/04/25 08:09:09;;;;;;;35.63;18.65;;;;;;;8.62;90.78;99896.44;8697341;33;20145;-74
2022/04/25 08:19:35;;;;;;;37.78;18.23;;;;;;;8.63;91.71;99916.88;8694998;33;20152;-74
2022/04/25 08:24:38;;;;;;;41.08;21.05;;;;;;;8.86;92.06;99916.81;8695638;33;20676;-74
2022/04/25 08:29:41;;;;;;;38.20;20.17;;;;;;;9.13;92.53;99929.78;8696533;33;20665;-74
2022/04/25 08:34:45;;;;;;;39.80;19.50;;;;;;;9.28;92.50;99932.06;8696335;33;20221;-73
2022/04/25 08:39:48;;;;;;;42.65;21.63;;;;;;;9.48;92.47;99930.41;8696067;33;20220;-74
2022/04/25 08:44:54;;;;;;;43.88;21.35;;;;;;;9.43;91.54;99940.66;8696478;33;20156;-74
2022/04/25 08:49:59;;;;;;;37.65;19.85;;;;;;;9.28;90.63;99953.50;8670609;33;20236;-73
2022/04/25 08:55:04;;;;;;;39.53;19.58;;;;;;;9.41;92.15;99960.56;8696290;33;20671;-74
2022/04/25 09:00:08;;;;;;;41.35;20.33;;;;;;;9.77;92.51;99961.13;8696047;33;20227;-74
2022/04/25 09:05:15;;;;;;;36.92;18.42;;;;;;;10.09;92.28;99971.81;8731636;28;20152;-75
2022/04/25 09:10:21;;;;;;;34.15;17.58;;;;;;;10.16;91.87;99975.69;8770182;33;20155;-74
2022/04/25 09:15:25;;;;;;;34.97;17.83;;;;;;;10.56;93.16;99981.16;8753731;33;20151;-74
2022/04/25 09:20:31;;;;;;;31.38;17.50;;;;;;;10.97;92.04;99978.47;8753600;33;20353;-74
2022/04/25 09:25:35;;;;;;;31.50;15.88;;;;;;;10.97;91.42;99981.16;8753219;33;20682;-75
2022/04/25 09:30:57;;;;;;;26.67;14.80;;;;;;;10.99;90.56;99989.94;8753439;33;20171;-74
2022/04/25 09:36:02;;;;;;;24.88;14.77;;;;;;;10.98;90.69;99990.94;8752995;33;20179;-75
2022/04/25 09:41:08;;;;;;;22.65;13.30;;;;;;;10.78;89.68;100000.78;8753403;33;20212;-74
2022/04/25 09:46:13;;;;;;;22.50;12.90;;;;;;;10.66;89.54;100004.50;8752904;33;20452;-74
2022/04/25 09:51:18;;;;;;;26.15;14.13;;;;;;;10.42;88.51;100002.13;8752691;33;20794;-74
2022/04/25 09:56:23;;;;;;;23.08;12.63;;;;;;;9.91;88.00;100009.13;8752110;33;20620;-74
2022/04/25 10:01:27;;;;;;;24.00;14.63;;;;;;;9.57;86.98;100014.63;8775446;33;20239;-74
2022/04/25 10:06:34;;;;;;;21.45;13.95;;;;;;;9.89;89.06;100014.63;8752776;33;20131;-74
2022/04/25 10:11:43;;;;;;;24.90;14.10;;;;;;;10.00;88.61;100021.75;8751620;33;20193;-74
2022/04/25 10:16:48;;;;;;;23.63;13.80;;;;;;;10.13;89.11;100032.31;8752080;33;20178;-74
2022/04/25 10:21:56;;;;;;;28.23;14.80;;;;;;;10.01;88.81;100038.72;8751131;33;20140;-75
2022/04/25 10:27:08;;;;;;;24.05;14.70;;;;;;;10.10;89.54;100040.63;8685463;33;20205;-74
2022/04/25 10:32:12;;;;;;;26.83;14.82;;;;;;;10.12;89.71;100039.53;8631343;33;20518;-74
2022/04/25 10:37:31;;;;;;;28.08;15.00;;;;;;;10.37;90.09;100046.34;8631559;33;20405;-74
2022/04/25 10:48:27;;;;;;;29.08;17.20;;;;;;;10.49;88.87;100051.63;8405147;34;20504;-74
2022/04/25 10:54:00;;;;;;;26.60;17.10;;;;;;;10.45;89.09;100058.25;8581519;33;20147;-75
2022/04/25 10:59:24;;;;;;;31.40;16.45;;;;;;;10.50;88.85;100059.53;8637096;33;20143;-74
2022/04/25 11:04:28;;;;;;;23.77;14.55;;;;;;;10.36;88.34;100057.19;8636494;33;20415;-74
2022/04/25 11:09:39;;;;;;;28.35;16.50;;;;;;;10.41;89.03;100059.50;8633747;33;20317;-74
2022/04/25 11:14:58;;;;;;;23.73;14.50;;;;;;;10.66;89.00;100058.22;8628538;33;20151;-75
2022/04/25 11:20:02;;;;;;;25.80;13.95;;;;;;;10.77;88.50;100063.53;8633716;33;20142;-74
2022/04/25 11:25:42;;;;;;;22.60;14.20;;;;;;;10.63;87.67;100074.63;8636700;33;20421;-75
2022/04/25 11:30:45;;;;;;;20.88;13.05;;;;;;;10.31;87.57;100078.22;8630601;33;20410;-74
2022/04/25 11:36:00;;;;;;;20.10;12.80;;;;;;;10.23;88.50;100084.25;8637184;33;21065;-74
2022/04/25 11:41:04;;;;;;;19.90;12.63;;;;;;;10.31;87.30;100091.63;8642560;33;20545;-74
2022/04/25 11:46:08;;;;;;;18.27;12.35;;;;;;;10.31;87.11;100087.13;8641813;33;20409;-74
2022/04/25 11:51:11;;;;;;;16.83;11.18;;;;;;;10.32;87.74;100096.88;8642173;33;20462;-75
2022/04/25 11:56:17;;;;;;;19.58;11.50;;;;;;;11.04;89.01;100087.97;8641731;33;20297;-74
2022/04/25 12:01:33;;;;;;;19.02;11.77;;;;;;;11.23;87.01;100094.47;8639759;33;20236;-75
2022/04/25 12:06:36;;;;;;;16.52;10.45;;;;;;;11.00;84.44;100097.31;8634739;33;20908;-74
2022/04/25 12:17:03;;;;;;;18.85;11.95;;;;;;;11.00;84.06;100102.69;8646882;33;20480;-74
2022/04/25 12:22:06;;;;;;;17.98;12.10;;;;;;;10.89;83.17;100113.53;8641509;33;20485;-74
2022/04/25 12:27:13;;;;;;;18.58;12.13;;;;;;;10.65;84.33;100119.16;8644072;33;20433;-74
2022/04/25 12:32:23;;;;;;;20.73;13.43;;;;;;;10.41;82.08;100123.94;8637890;33;20624;-74
2022/04/25 12:37:26;;;;;;;23.85;14.00;;;;;;;10.16;82.67;100115.25;8641633;33;21080;-74
2022/04/25 12:47:59;;;;;;;24.52;13.00;;;;;;;11.49;83.12;100108.25;8986959;32;20451;-74
2022/04/25 12:53:02;;;;;;;23.58;13.65;;;;;;;12.03;80.81;100123.13;8894074;32;20532;-74
2022/04/25 12:58:05;;;;;;;20.67;13.70;;;;;;;12.14;80.26;100119.44;8890113;32;20417;-74
2022/04/25 13:03:10;;;;;;;22.52;13.95;;;;;;;12.46;80.27;100112.97;8893680;32;20165;-74
2022/04/25 13:08:13;;;;;;;26.92;14.40;;;;;;;12.80;77.82;100113.31;8892022;33;20786;-74
2022/04/25 13:13:17;;;;;;;20.30;13.00;;;;;;;12.87;73.14;100116.28;8892492;33;20244;-74
2022/04/25 13:18:21;;;;;;;19.55;11.90;;;;;;;12.66;71.30;100125.41;8894173;32;20149;-74
2022/04/25 13:23:24;;;;;;;15.73;10.98;;;;;;;12.81;75.56;100121.28;8894460;32;20274;-74
2022/04/25 13:28:27;;;;;;;16.50;11.07;;;;;;;13.37;78.51;100122.25;8893663;32;20138;-74
2022/04/25 13:33:38;;;;;;;15.32;11.05;;;;;;;13.70;71.41;100114.53;8894460;32;20142;-73
2022/04/25 13:38:41;;;;;;;14.60;10.20;;;;;;;13.44;70.46;100120.66;8892695;32;20633;-74
2022/04/25 13:43:44;;;;;;;16.23;11.38;;;;;;;13.28;69.32;100128.50;8892505;32;20206;-74
2022/04/25 13:48:50;;;;;;;16.67;11.43;;;;;;;13.15;69.22;100119.91;8891863;32;20173;-73
2022/04/25 13:53:53;;;;;;;13.43;10.25;;;;;;;13.25;71.49;100123.41;8892610;32;20200;-74
2022/04/25 13:58:56;;;;;;;11.70;9.02;;;;;;;13.32;69.09;100120.97;8869491;33;21006;-73
2022/04/25 14:04:00;;;;;;;11.98;8.88;;;;;;;13.34;73.05;100116.28;8873646;33;20473;-74
2022/04/25 14:09:04;;;;;;;17.73;11.23;;;;;;;13.10;71.83;100117.63;8871735;33;20280;-74
2022/04/25 14:14:07;;;;;;;18.30;11.50;;;;;;;12.51;70.43;100129.56;8866852;33;20239;-73
2022/04/25 14:19:11;;;;;;;18.80;11.30;;;;;;;12.57;72.96;100134.34;8867668;32;20138;-73
2022/04/25 14:24:15;;;;;;;17.67;11.48;;;;;;;12.85;73.65;100131.75;8868782;32;20316;-74
2022/04/25 14:29:18;;;;;;;15.13;11.07;;;;;;;12.86;72.61;100126.22;8872663;32;20508;-73
2022/04/25 14:34:23;;;;;;;15.88;11.25;;;;;;;12.24;68.73;100135.63;8873080;32;20149;-73
2022/04/25 14:39:26;;;;;;;16.52;11.30;;;;;;;11.95;70.22;100141.81;8872606;32;20141;-73
2022/04/25 14:44:32;;;;;;;18.58;11.40;;;;;;;11.73;70.71;100143.72;8872494;32;20363;-73
2022/04/25 14:54:58;;;;;;;17.25;11.45;;;;;;;11.55;70.35;100149.94;8872214;32;20363;-73
2022/04/25 15:00:03;;;;;;;17.00;12.30;;;;;;;11.50;71.42;100155.72;8870755;33;20131;-73
2022/04/25 15:05:09;;;;;;;16.05;11.57;;;;;;;11.57;70.80;100156.84;8872938;32;20149;-74
2022/04/25 15:10:13;;;;;;;18.13;12.32;;;;;;;11.68;70.76;100155.91;8870625;32;20583;-75
2022/04/25 15:15:16;;;;;;;18.70;12.55;;;;;;;11.60;70.18;100156.63;8871603;32;20645;-74
2022/04/25 15:20:20;;;;;;;19.02;12.52;;;;;;;11.57;71.54;100156.84;8871059;33;20146;-74
2022/04/25 15:25:23;;;;;;;18.13;12.38;;;;;;;11.54;71.71;100157.13;8871403;32;20665;-75
2022/04/25 15:30:27;;;;;;;23.20;13.65;;;;;;;11.36;70.31;100162.31;8870972;32;20154;-75
2022/04/25 15:35:32;;;;;;;22.58;14.05;;;;;;;11.35;70.65;100157.06;8871069;32;20552;-75
2022/04/25 15:40:40;;;;;;;19.98;13.43;;;;;;;11.23;70.01;100164.38;8869783;33;20158;-75
2022/04/25 15:45:43;;;;;;;20.10;13.43;;;;;;;11.14;71.49;100166.03;8868049;32;20142;-75
2022/04/25 15:50:48;;;;;;;25.30;14.53;;;;;;;10.96;73.56;100167.59;8871425;32;20922;-75
2022/04/25 16:01:11;;;;;;;26.08;15.32;;;;;;;10.70;74.85;100168.00;8869395;33;20243;-74
2022/04/25 16:06:16;;;;;;;28.05;16.63;;;;;;;10.76;76.18;100169.28;8869742;32;20142;-76
2022/04/25 16:11:19;;;;;;;27.20;16.27;;;;;;;10.79;76.08;100166.34;8871156;32;20677;-75
2022/04/25 16:16:22;;;;;;;26.75;16.40;;;;;;;10.81;76.43;100156.31;8869839;32;20180;-75
2022/04/25 16:21:26;;;;;;;26.58;16.23;;;;;;;10.78;76.25;100153.91;8870987;32;20183;-75
2022/04/25 16:26:29;;;;;;;26.55;15.88;;;;;;;10.71;75.34;100167.00;8868898;32;20243;-75
2022/04/25 16:31:32;;;;;;;27.33;16.27;;;;;;;10.72;75.83;100168.69;8870304;32;20146;-76
2022/04/25 16:36:37;;;;;;;27.30;15.60;;;;;;;10.83;75.32;100170.47;8870107;32;20383;-75
2022/04/25 16:41:40;;;;;;;25.23;15.68;;;;;;;10.83;74.62;100179.41;8870525;33;20656;-75
2022/04/25 16:46:43;;;;;;;23.70;15.35;;;;;;;10.86;73.53;100164.84;8870616;32;20455;-75
2022/04/25 16:51:48;;;;;;;26.50;15.68;;;;;;;10.82;72.71;100171.44;8870523;32;20150;-76
2022/04/25 16:56:51;;;;;;;26.63;14.38;;;;;;;10.88;72.62;100178.13;8870154;32;20228;-75
2022/04/25 17:01:54;;;;;;;23.95;13.93;;;;;;;10.84;71.07;100183.78;8869587;32;20145;-75
2022/04/25 17:06:59;;;;;;;25.83;15.07;;;;;;;10.94;71.13;100173.09;8868940;33;20465;-75
2022/04/25 17:12:03;;;;;;;24.08;14.10;;;;;;;10.97;70.06;100174.66;8868942;32;20157;-75
2022/04/25 17:17:06;;;;;;;23.17;14.32;;;;;;;10.97;69.85;100167.47;8868620;33;20229;-75
2022/04/25 17:22:11;;;;;;;23.17;14.05;;;;;;;10.75;69.50;100176.50;8869149;33;20135;-75
2022/04/25 17:27:14;;;;;;;25.00;14.07;;;;;;;10.68;69.62;100187.91;8867653;32;20631;-75
